sensor_id;sensor_type;location;lat;lon;timestamp;pressure;altitude;pressure_sealevel;temperature;humidity
6032;BME280;3044;43.232;27.972;2023-05-02T00:00:28;45064.31;;;-143.84;34.79
6032;BME280;3044;43.232;27.972;2023-05-02T00:02:55;45047.16;;;-143.84;34.74
6032;BME280;3044;43.232;27.972;2023-05-02T00:05:23;45045.25;;;-143.84;34.57
6032;BME280;3044;43.232;27.972;2023-05-02T00:07:50;45062.41;;;-143.84;34.41
6032;BME280;3044;43.232;27.972;2023-05-02T00:10:17;45047.16;;;-143.84;34.41
6032;BME280;3044;43.232;27.972;2023-05-02T00:12:46;45054.78;;;-143.84;34.48
6032;BME280;3044;43.232;27.972;2023-05-02T00:15:13;45070.00;;;-143.84;34.35
6032;BME280;3044;43.232;27.972;2023-05-02T00:17:40;45049.06;;;-143.84;34.33
6032;BME280;3044;43.232;27.972;2023-05-02T00:20:09;45049.06;;;-143.84;34.31
6032;BME280;3044;43.232;27.972;2023-05-02T00:22:37;45030.03;;;-143.84;34.07
6032;BME280;3044;43.232;27.972;2023-05-02T00:25:05;45043.34;;;-143.84;34.00
6032;BME280;3044;43.232;27.972;2023-05-02T00:27:32;45064.31;;;-143.84;33.94
6032;BME280;3044;43.232;27.972;2023-05-02T00:30:01;45071.91;;;-143.84;34.16
6032;BME280;3044;43.232;27.972;2023-05-02T00:32:28;45045.25;;;-143.84;34.28
6032;BME280;3044;43.232;27.972;2023-05-02T00:34:55;45045.25;;;-143.84;33.86
6032;BME280;3044;43.232;27.972;2023-05-02T00:37:25;45062.41;;;-143.84;34.10
6032;BME280;3044;43.232;27.972;2023-05-02T00:39:53;45049.06;;;-143.84;33.85
6032;BME280;3044;43.232;27.972;2023-05-02T00:42:20;45026.22;;;-143.84;33.77
6032;BME280;3044;43.232;27.972;2023-05-02T00:44:47;45041.44;;;-143.84;33.68
6032;BME280;3044;43.232;27.972;2023-05-02T00:47:16;45041.44;;;-143.84;34.03
6032;BME280;3044;43.232;27.972;2023-05-02T00:49:43;45056.69;;;-143.84;33.72
6032;BME280;3044;43.232;27.972;2023-05-02T00:52:10;45064.31;;;-143.84;33.68
6032;BME280;3044;43.232;27.972;2023-05-02T00:54:37;45066.22;;;-143.84;33.48
6032;BME280;3044;43.232;27.972;2023-05-02T00:57:05;45058.59;;;-143.84;33.36
6032;BME280;3044;43.232;27.972;2023-05-02T00:59:34;45062.41;;;-143.84;33.43
6032;BME280;3044;43.232;27.972;2023-05-02T01:02:10;45068.13;;;-143.84;33.14
6032;BME280;3044;43.232;27.972;2023-05-02T01:05:01;45068.13;;;-143.84;33.33
6032;BME280;3044;43.232;27.972;2023-05-02T01:07:42;45064.31;;;-143.84;33.29
6032;BME280;3044;43.232;27.972;2023-05-02T01:10:19;45068.13;;;-143.84;33.25
6032;BME280;3044;43.232;27.972;2023-05-02T01:12:53;45079.53;;;-143.84;33.44
6032;BME280;3044;43.232;27.972;2023-05-02T01:15:23;45062.41;;;-143.84;33.41
6032;BME280;3044;43.232;27.972;2023-05-02T01:17:53;45039.53;;;-143.84;33.37
6032;BME280;3044;43.232;27.972;2023-05-02T01:20:24;45071.91;;;-143.84;33.28
6032;BME280;3044;43.232;27.972;2023-05-02T01:22:53;45068.13;;;-143.84;33.30
6032;BME280;3044;43.232;27.972;2023-05-02T01:25:26;45062.41;;;-143.84;33.17
6032;BME280;3044;43.232;27.972;2023-05-02T01:28:03;45047.16;;;-143.84;33.07
6032;BME280;3044;43.232;27.972;2023-05-02T01:30:33;45064.31;;;-143.84;33.23
6032;BME280;3044;43.232;27.972;2023-05-02T01:33:03;45077.63;;;-143.84;33.15
6032;BME280;3044;43.232;27.972;2023-05-02T01:35:32;45052.88;;;-143.84;33.26
6032;BME280;3044;43.232;27.972;2023-05-02T01:38:02;45041.44;;;-143.84;33.17
6032;BME280;3044;43.232;27.972;2023-05-02T01:40:32;45066.22;;;-143.84;33.15
6032;BME280;3044;43.232;27.972;2023-05-02T01:43:01;45045.25;;;-143.84;33.21
6032;BME280;3044;43.232;27.972;2023-05-02T01:45:30;45094.78;;;-143.84;33.01
6032;BME280;3044;43.232;27.972;2023-05-02T01:48:02;45081.44;;;-143.84;33.31
6032;BME280;3044;43.232;27.972;2023-05-02T01:50:33;45062.41;;;-143.84;33.14
6032;BME280;3044;43.232;27.972;2023-05-02T01:53:02;45039.53;;;-143.84;33.15
6032;BME280;3044;43.232;27.972;2023-05-02T01:55:30;45060.50;;;-143.84;33.23
6032;BME280;3044;43.232;27.972;2023-05-02T01:58:01;45062.41;;;-143.84;33.17
6032;BME280;3044;43.232;27.972;2023-05-02T02:00:28;45052.88;;;-143.84;33.17
6032;BME280;3044;43.232;27.972;2023-05-02T02:02:57;45060.50;;;-143.84;33.07
6032;BME280;3044;43.232;27.972;2023-05-02T02:05:27;45068.13;;;-143.84;33.15
6032;BME280;3044;43.232;27.972;2023-05-02T02:07:54;45049.06;;;-143.84;33.20
6032;BME280;3044;43.232;27.972;2023-05-02T02:10:25;45064.31;;;-143.84;33.15
6032;BME280;3044;43.232;27.972;2023-05-02T02:12:55;45056.69;;;-143.84;33.14
6032;BME280;3044;43.232;27.972;2023-05-02T02:15:26;45047.16;;;-143.84;33.41
6032;BME280;3044;43.232;27.972;2023-05-02T02:17:59;45060.50;;;-143.84;33.46
6032;BME280;3044;43.232;27.972;2023-05-02T02:20:28;45035.75;;;-143.84;33.30
6032;BME280;3044;43.232;27.972;2023-05-02T02:22:58;45049.06;;;-143.84;33.10
6032;BME280;3044;43.232;27.972;2023-05-02T02:25:26;45056.69;;;-143.84;33.29
6032;BME280;3044;43.232;27.972;2023-05-02T02:27:53;45064.31;;;-143.84;33.17
6032;BME280;3044;43.232;27.972;2023-05-02T02:30:20;45071.91;;;-143.84;33.29
6032;BME280;3044;43.232;27.972;2023-05-02T02:32:48;45066.22;;;-143.84;33.07
6032;BME280;3044;43.232;27.972;2023-05-02T02:35:15;45049.06;;;-143.84;33.32
6032;BME280;3044;43.232;27.972;2023-05-02T02:37:47;45056.69;;;-143.84;33.25
6032;BME280;3044;43.232;27.972;2023-05-02T02:40:20;45068.13;;;-143.84;33.54
6032;BME280;3044;43.232;27.972;2023-05-02T02:42:52;45062.41;;;-143.84;33.13
6032;BME280;3044;43.232;27.972;2023-05-02T02:45:32;45056.69;;;-143.84;33.21
6032;BME280;3044;43.232;27.972;2023-05-02T02:48:07;45056.69;;;-143.84;33.36
6032;BME280;3044;43.232;27.972;2023-05-02T02:50:44;45037.66;;;-143.84;33.20
6032;BME280;3044;43.232;27.972;2023-05-02T02:53:19;45047.16;;;-143.84;33.50
6032;BME280;3044;43.232;27.972;2023-05-02T02:55:52;45052.88;;;-143.84;33.43
6032;BME280;3044;43.232;27.972;2023-05-02T02:58:30;45050.97;;;-143.84;33.67
6032;BME280;3044;43.232;27.972;2023-05-02T03:01:02;45014.78;;;-143.84;33.63
6032;BME280;3044;43.232;27.972;2023-05-02T03:03:31;45071.91;;;-143.84;33.66
6032;BME280;3044;43.232;27.972;2023-05-02T03:05:59;45062.41;;;-143.84;33.56
6032;BME280;3044;43.232;27.972;2023-05-02T03:08:38;45056.69;;;-143.84;33.82
6032;BME280;3044;43.232;27.972;2023-05-02T03:11:05;45052.88;;;-143.84;33.26
6032;BME280;3044;43.232;27.972;2023-05-02T03:13:32;45054.78;;;-143.84;33.44
6032;BME280;3044;43.232;27.972;2023-05-02T03:16:28;45043.34;;;-143.84;33.42
6032;BME280;3044;43.232;27.972;2023-05-02T03:18:57;45071.91;;;-143.84;33.43
6032;BME280;3044;43.232;27.972;2023-05-02T03:21:24;45052.88;;;-143.84;33.85
6032;BME280;3044;43.232;27.972;2023-05-02T03:23:52;45039.53;;;-143.84;34.08
6032;BME280;3044;43.232;27.972;2023-05-02T03:26:20;45068.13;;;-143.84;33.99
6032;BME280;3044;43.232;27.972;2023-05-02T03:28:47;45052.88;;;-143.84;34.82
6032;BME280;3044;43.232;27.972;2023-05-02T03:31:14;45047.16;;;-143.84;34.71
6032;BME280;3044;43.232;27.972;2023-05-02T03:33:42;45070.00;;;-143.84;34.71
6032;BME280;3044;43.232;27.972;2023-05-02T03:36:09;45043.34;;;-143.84;35.72
6032;BME280;3044;43.232;27.972;2023-05-02T03:38:36;45045.25;;;-143.84;35.25
6032;BME280;3044;43.232;27.972;2023-05-02T03:41:05;45039.53;;;-143.84;34.16
6032;BME280;3044;43.232;27.972;2023-05-02T03:43:32;45031.94;;;-143.84;33.66
6032;BME280;3044;43.232;27.972;2023-05-02T03:46:03;45024.31;;;-143.84;32.21
6032;BME280;3044;43.232;27.972;2023-05-02T03:48:32;45020.50;;;-143.84;31.72
6032;BME280;3044;43.232;27.972;2023-05-02T03:51:00;45024.31;;;-143.84;31.26
6032;BME280;3044;43.232;27.972;2023-05-02T03:53:28;45007.19;;;-143.84;30.85
6032;BME280;3044;43.232;27.972;2023-05-02T03:55:56;45003.38;;;-143.84;29.28
6032;BME280;3044;43.232;27.972;2023-05-02T03:58:24;44988.13;;;-143.84;30.13
6032;BME280;3044;43.232;27.972;2023-05-02T04:00:52;44995.75;;;-143.84;28.79
6032;BME280;3044;43.232;27.972;2023-05-02T04:03:20;44969.09;;;-143.84;28.22
6032;BME280;3044;43.232;27.972;2023-05-02T04:05:47;44971.00;;;-143.84;26.97
6032;BME280;3044;43.232;27.972;2023-05-02T04:08:16;44929.09;;;-143.84;26.01
6032;BME280;3044;43.232;27.972;2023-05-02T04:10:43;44953.88;;;-143.84;26.16
6032;BME280;3044;43.232;27.972;2023-05-02T04:13:10;44961.47;;;-143.84;26.23
6032;BME280;3044;43.232;27.972;2023-05-02T04:15:39;44950.06;;;-143.84;26.07
6032;BME280;3044;43.232;27.972;2023-05-02T04:18:06;44936.72;;;-143.84;26.02
6032;BME280;3044;43.232;27.972;2023-05-02T04:20:33;44932.91;;;-143.84;26.05
6032;BME280;3044;43.232;27.972;2023-05-02T04:23:00;44963.38;;;-143.84;27.31
6032;BME280;3044;43.232;27.972;2023-05-02T04:25:27;44946.25;;;-143.84;27.02
6032;BME280;3044;43.232;27.972;2023-05-02T04:27:55;44908.16;;;-143.84;26.96
6032;BME280;3044;43.232;27.972;2023-05-02T04:30:22;44927.19;;;-143.84;26.65
6032;BME280;3044;43.232;27.972;2023-05-02T04:32:51;44923.41;;;-143.84;27.25
6032;BME280;3044;43.232;27.972;2023-05-02T04:35:18;44923.41;;;-143.84;27.12
6032;BME280;3044;43.232;27.972;2023-05-02T04:37:46;44923.41;;;-143.84;27.11
6032;BME280;3044;43.232;27.972;2023-05-02T04:40:13;44925.31;;;-143.84;27.01
6032;BME280;3044;43.232;27.972;2023-05-02T04:42:40;44940.53;;;-143.84;27.36
6032;BME280;3044;43.232;27.972;2023-05-02T04:45:08;44925.31;;;-143.84;27.17
6032;BME280;3044;43.232;27.972;2023-05-02T04:47:35;44942.44;;;-143.84;25.60
6032;BME280;3044;43.232;27.972;2023-05-02T04:50:04;44942.44;;;-143.84;24.87
6032;BME280;3044;43.232;27.972;2023-05-02T04:52:32;44944.34;;;-143.84;25.32
6032;BME280;3044;43.232;27.972;2023-05-02T04:54:59;44938.63;;;-143.84;26.34
6032;BME280;3044;43.232;27.972;2023-05-02T04:57:26;44906.25;;;-143.84;26.91
6032;BME280;3044;43.232;27.972;2023-05-02T04:59:53;44940.53;;;-143.84;26.85
6032;BME280;3044;43.232;27.972;2023-05-02T05:02:20;44891.03;;;-143.84;26.48
6032;BME280;3044;43.232;27.972;2023-05-02T05:04:47;44936.72;;;-143.84;27.46
6032;BME280;3044;43.232;27.972;2023-05-02T05:07:16;44938.63;;;-143.84;28.27
6032;BME280;3044;43.232;27.972;2023-05-02T05:09:43;44931.00;;;-143.84;28.25
6032;BME280;3044;43.232;27.972;2023-05-02T05:12:10;44923.41;;;-143.84;28.46
6032;BME280;3044;43.232;27.972;2023-05-02T05:14:37;44931.00;;;-143.84;28.25
6032;BME280;3044;43.232;27.972;2023-05-02T05:17:04;44953.88;;;-143.84;28.30
6032;BME280;3044;43.232;27.972;2023-05-02T05:19:31;44931.00;;;-143.84;28.73
6032;BME280;3044;43.232;27.972;2023-05-02T05:21:58;44946.25;;;-143.84;29.22
6032;BME280;3044;43.232;27.972;2023-05-02T05:24:27;44950.06;;;-143.84;30.52
6032;BME280;3044;43.232;27.972;2023-05-02T05:26:54;44921.50;;;-143.84;31.19
6032;BME280;3044;43.232;27.972;2023-05-02T05:29:21;44953.88;;;-143.84;30.07
6032;BME280;3044;43.232;27.972;2023-05-02T05:31:48;44955.75;;;-143.84;31.20
6032;BME280;3044;43.232;27.972;2023-05-02T05:34:15;44932.91;;;-143.84;30.91
6032;BME280;3044;43.232;27.972;2023-05-02T05:36:42;44950.06;;;-143.84;30.79
6032;BME280;3044;43.232;27.972;2023-05-02T05:39:09;44957.66;;;-143.84;31.25
6032;BME280;3044;43.232;27.972;2023-05-02T05:41:39;44944.34;;;-143.84;31.73
6032;BME280;3044;43.232;27.972;2023-05-02T05:44:06;44959.56;;;-143.84;31.78
6032;BME280;3044;43.232;27.972;2023-05-02T05:46:33;44967.19;;;-143.84;31.30
6032;BME280;3044;43.232;27.972;2023-05-02T05:49:00;44982.41;;;-143.84;32.21
6032;BME280;3044;43.232;27.972;2023-05-02T05:51:27;44980.53;;;-143.84;32.06
6032;BME280;3044;43.232;27.972;2023-05-02T05:53:54;44976.72;;;-143.84;31.46
6032;BME280;3044;43.232;27.972;2023-05-02T05:56:21;44965.28;;;-143.84;30.03
6032;BME280;3044;43.232;27.972;2023-05-02T05:58:50;44972.91;;;-143.84;30.46
6032;BME280;3044;43.232;27.972;2023-05-02T06:01:17;44955.75;;;-143.84;30.62
6032;BME280;3044;43.232;27.972;2023-05-02T06:03:44;44946.25;;;-143.84;30.62
6032;BME280;3044;43.232;27.972;2023-05-02T06:06:11;44972.91;;;-143.84;30.33
6032;BME280;3044;43.232;27.972;2023-05-02T06:08:38;44946.25;;;-143.84;30.42
6032;BME280;3044;43.232;27.972;2023-05-02T06:11:08;44971.00;;;-143.84;30.13
6032;BME280;3044;43.232;27.972;2023-05-02T06:13:36;44946.25;;;-143.84;28.45
6032;BME280;3044;43.232;27.972;2023-05-02T06:16:05;44944.34;;;-143.84;29.49
6032;BME280;3044;43.232;27.972;2023-05-02T06:18:32;44957.66;;;-143.84;29.62
6032;BME280;3044;43.232;27.972;2023-05-02T06:21:02;44986.22;;;-143.84;29.49
6032;BME280;3044;43.232;27.972;2023-05-02T06:23:30;44953.88;;;-143.84;28.84
6032;BME280;3044;43.232;27.972;2023-05-02T06:25:58;44946.25;;;-143.84;28.44
6032;BME280;3044;43.232;27.972;2023-05-02T06:28:26;44944.34;;;-143.84;29.28
6032;BME280;3044;43.232;27.972;2023-05-02T06:30:57;44967.19;;;-143.84;28.82
6032;BME280;3044;43.232;27.972;2023-05-02T06:33:27;44963.38;;;-143.84;29.99
6032;BME280;3044;43.232;27.972;2023-05-02T06:35:54;44942.44;;;-143.84;28.82
6032;BME280;3044;43.232;27.972;2023-05-02T06:38:21;44927.19;;;-143.84;28.90
6032;BME280;3044;43.232;27.972;2023-05-02T06:40:49;44957.66;;;-143.84;29.20
6032;BME280;3044;43.232;27.972;2023-05-02T06:43:17;44948.16;;;-143.84;30.45
6032;BME280;3044;43.232;27.972;2023-05-02T06:45:44;44955.75;;;-143.84;30.19
6032;BME280;3044;43.232;27.972;2023-05-02T06:48:11;44932.91;;;-143.84;29.39
6032;BME280;3044;43.232;27.972;2023-05-02T06:50:40;44936.72;;;-143.84;29.58
6032;BME280;3044;43.232;27.972;2023-05-02T06:53:07;44948.16;;;-143.84;30.15
6032;BME280;3044;43.232;27.972;2023-05-02T06:55:34;44961.47;;;-143.84;30.88
6032;BME280;3044;43.232;27.972;2023-05-02T06:58:01;44969.09;;;-143.84;31.28
6032;BME280;3044;43.232;27.972;2023-05-02T07:00:28;44978.63;;;-143.84;30.73
6032;BME280;3044;43.232;27.972;2023-05-02T07:02:56;44965.28;;;-143.84;31.62
6032;BME280;3044;43.232;27.972;2023-05-02T07:05:24;44984.31;;;-143.84;33.37
6032;BME280;3044;43.232;27.972;2023-05-02T07:07:52;44944.34;;;-143.84;33.55
6032;BME280;3044;43.232;27.972;2023-05-02T07:10:19;44955.75;;;-143.84;32.95
6032;BME280;3044;43.232;27.972;2023-05-02T07:12:46;44967.19;;;-143.84;33.56
6032;BME280;3044;43.232;27.972;2023-05-02T07:15:13;44963.38;;;-143.84;34.02
6032;BME280;3044;43.232;27.972;2023-05-02T07:17:41;44957.66;;;-143.84;35.21
6032;BME280;3044;43.232;27.972;2023-05-02T07:20:09;44965.28;;;-143.84;34.35
6032;BME280;3044;43.232;27.972;2023-05-02T07:22:37;44971.00;;;-143.84;33.53
6032;BME280;3044;43.232;27.972;2023-05-02T07:25:06;44967.19;;;-143.84;33.64
6032;BME280;3044;43.232;27.972;2023-05-02T07:27:34;44978.63;;;-143.84;33.46
6032;BME280;3044;43.232;27.972;2023-05-02T07:30:02;44978.63;;;-143.84;34.05
6032;BME280;3044;43.232;27.972;2023-05-02T07:32:30;44957.66;;;-143.84;34.22
6032;BME280;3044;43.232;27.972;2023-05-02T07:34:57;44980.53;;;-143.84;34.53
6032;BME280;3044;43.232;27.972;2023-05-02T07:37:24;44951.97;;;-143.84;33.71
6032;BME280;3044;43.232;27.972;2023-05-02T07:39:51;44969.09;;;-143.84;33.68
6032;BME280;3044;43.232;27.972;2023-05-02T07:42:20;44953.88;;;-143.84;33.10
6032;BME280;3044;43.232;27.972;2023-05-02T07:44:47;44976.72;;;-143.84;32.69
6032;BME280;3044;43.232;27.972;2023-05-02T07:47:14;44963.38;;;-143.84;33.55
6032;BME280;3044;43.232;27.972;2023-05-02T07:49:41;44957.66;;;-143.84;32.49
6032;BME280;3044;43.232;27.972;2023-05-02T07:52:08;44978.63;;;-143.84;32.17
6032;BME280;3044;43.232;27.972;2023-05-02T07:54:35;44961.47;;;-143.84;31.69
6032;BME280;3044;43.232;27.972;2023-05-02T07:57:02;44961.47;;;-143.84;32.63
6032;BME280;3044;43.232;27.972;2023-05-02T07:59:34;44959.56;;;-143.84;32.20
6032;BME280;3044;43.232;27.972;2023-05-02T08:02:01;44944.34;;;-143.84;31.13
6032;BME280;3044;43.232;27.972;2023-05-02T08:04:28;44974.81;;;-143.84;31.61
6032;BME280;3044;43.232;27.972;2023-05-02T08:06:55;44980.53;;;-143.84;30.52
6032;BME280;3044;43.232;27.972;2023-05-02T08:09:22;44971.00;;;-143.84;30.24
6032;BME280;3044;43.232;27.972;2023-05-02T08:11:49;44969.09;;;-143.84;29.89
6032;BME280;3044;43.232;27.972;2023-05-02T08:14:16;44980.53;;;-143.84;30.72
6032;BME280;3044;43.232;27.972;2023-05-02T08:16:45;44940.53;;;-143.84;32.01
6032;BME280;3044;43.232;27.972;2023-05-02T08:19:12;44953.88;;;-143.84;33.23
6032;BME280;3044;43.232;27.972;2023-05-02T08:21:39;44976.72;;;-143.84;33.05
6032;BME280;3044;43.232;27.972;2023-05-02T08:24:06;44951.97;;;-143.84;32.42
6032;BME280;3044;43.232;27.972;2023-05-02T08:26:33;44927.19;;;-143.84;32.45
6032;BME280;3044;43.232;27.972;2023-05-02T08:29:00;44986.22;;;-143.84;32.26
6032;BME280;3044;43.232;27.972;2023-05-02T08:31:29;44967.19;;;-143.84;31.15
6032;BME280;3044;43.232;27.972;2023-05-02T08:33:57;44963.38;;;-143.84;31.55
6032;BME280;3044;43.232;27.972;2023-05-02T08:36:24;44957.66;;;-143.84;30.77
6032;BME280;3044;43.232;27.972;2023-05-02T08:38:53;44959.56;;;-143.84;31.37
6032;BME280;3044;43.232;27.972;2023-05-02T08:41:21;44946.25;;;-143.84;32.52
6032;BME280;3044;43.232;27.972;2023-05-02T08:43:48;44951.97;;;-143.84;31.09
6032;BME280;3044;43.232;27.972;2023-05-02T08:46:16;44959.56;;;-143.84;31.47
6032;BME280;3044;43.232;27.972;2023-05-02T08:48:44;44965.28;;;-143.84;30.10
6032;BME280;3044;43.232;27.972;2023-05-02T08:51:15;44984.31;;;-143.84;29.44
6032;BME280;3044;43.232;27.972;2023-05-02T08:53:43;44946.25;;;-143.84;30.90
6032;BME280;3044;43.232;27.972;2023-05-02T08:56:11;44991.94;;;-143.84;29.92
6032;BME280;3044;43.232;27.972;2023-05-02T08:58:39;44957.66;;;-143.84;29.15
6032;BME280;3044;43.232;27.972;2023-05-02T09:01:11;44972.91;;;-143.84;30.07
6032;BME280;3044;43.232;27.972;2023-05-02T09:03:42;44951.97;;;-143.84;27.61
6032;BME280;3044;43.232;27.972;2023-05-02T09:06:10;44976.72;;;-143.84;27.51
6032;BME280;3044;43.232;27.972;2023-05-02T09:08:41;44971.00;;;-143.84;26.77
6032;BME280;3044;43.232;27.972;2023-05-02T09:11:10;44972.91;;;-143.84;27.16
6032;BME280;3044;43.232;27.972;2023-05-02T09:13:38;44982.41;;;-143.84;27.52
6032;BME280;3044;43.232;27.972;2023-05-02T09:16:07;44976.72;;;-143.84;29.17
6032;BME280;3044;43.232;27.972;2023-05-02T09:18:36;44955.75;;;-143.84;28.10
6032;BME280;3044;43.232;27.972;2023-05-02T09:21:05;44972.91;;;-143.84;28.47
6032;BME280;3044;43.232;27.972;2023-05-02T09:23:38;44986.22;;;-143.84;27.59
6032;BME280;3044;43.232;27.972;2023-05-02T09:26:20;44972.91;;;-143.84;27.90
6032;BME280;3044;43.232;27.972;2023-05-02T09:28:48;44978.63;;;-143.84;27.38
6032;BME280;3044;43.232;27.972;2023-05-02T09:31:17;44961.47;;;-143.84;28.64
6032;BME280;3044;43.232;27.972;2023-05-02T09:33:45;44976.72;;;-143.84;28.29
6032;BME280;3044;43.232;27.972;2023-05-02T09:36:13;44984.31;;;-143.84;28.00
6032;BME280;3044;43.232;27.972;2023-05-02T09:38:41;44965.28;;;-143.84;28.02
6032;BME280;3044;43.232;27.972;2023-05-02T09:41:08;44951.97;;;-143.84;29.43
6032;BME280;3044;43.232;27.972;2023-05-02T09:43:37;44978.63;;;-143.84;28.10
6032;BME280;3044;43.232;27.972;2023-05-02T09:46:06;44997.66;;;-143.84;29.05
6032;BME280;3044;43.232;27.972;2023-05-02T09:48:51;44974.81;;;-143.84;28.33
6032;BME280;3044;43.232;27.972;2023-05-02T09:51:19;44984.31;;;-143.84;28.56
6032;BME280;3044;43.232;27.972;2023-05-02T09:53:46;44993.84;;;-143.84;27.92
6032;BME280;3044;43.232;27.972;2023-05-02T09:56:14;44971.00;;;-143.84;29.90
6032;BME280;3044;43.232;27.972;2023-05-02T09:58:43;44974.81;;;-143.84;29.33
6032;BME280;3044;43.232;27.972;2023-05-02T10:01:13;44965.28;;;-143.84;28.55
6032;BME280;3044;43.232;27.972;2023-05-02T10:03:45;44963.38;;;-143.84;28.08
6032;BME280;3044;43.232;27.972;2023-05-02T10:06:14;44982.41;;;-143.84;27.67
6032;BME280;3044;43.232;27.972;2023-05-02T10:08:41;44978.63;;;-143.84;29.42
6032;BME280;3044;43.232;27.972;2023-05-02T10:11:11;44969.09;;;-143.84;30.03
6032;BME280;3044;43.232;27.972;2023-05-02T10:13:39;44972.91;;;-143.84;28.74
6032;BME280;3044;43.232;27.972;2023-05-02T10:16:11;44946.25;;;-143.84;29.98
6032;BME280;3044;43.232;27.972;2023-05-02T10:18:42;44961.47;;;-143.84;27.28
6032;BME280;3044;43.232;27.972;2023-05-02T10:21:16;44961.47;;;-143.84;28.95
6032;BME280;3044;43.232;27.972;2023-05-02T10:23:44;44961.47;;;-143.84;29.52
6032;BME280;3044;43.232;27.972;2023-05-02T10:26:14;45001.47;;;-143.84;28.64
6032;BME280;3044;43.232;27.972;2023-05-02T10:28:42;44991.94;;;-143.84;28.84
6032;BME280;3044;43.232;27.972;2023-05-02T10:31:12;44976.72;;;-143.84;29.92
6032;BME280;3044;43.232;27.972;2023-05-02T10:33:39;44946.25;;;-143.84;29.70
6032;BME280;3044;43.232;27.972;2023-05-02T10:36:08;44965.28;;;-143.84;28.90
6032;BME280;3044;43.232;27.972;2023-05-02T10:38:38;44950.06;;;-143.84;29.58
6032;BME280;3044;43.232;27.972;2023-05-02T10:41:09;44957.66;;;-143.84;29.01
6032;BME280;3044;43.232;27.972;2023-05-02T10:43:38;44971.00;;;-143.84;30.00
6032;BME280;3044;43.232;27.972;2023-05-02T10:49:08;44974.81;;;-143.84;29.79
6032;BME280;3044;43.232;27.972;2023-05-02T10:51:37;44957.66;;;-143.84;30.01
6032;BME280;3044;43.232;27.972;2023-05-02T10:54:18;44986.22;;;-143.84;28.96
6032;BME280;3044;43.232;27.972;2023-05-02T10:57:02;44971.00;;;-143.84;28.21
6032;BME280;3044;43.232;27.972;2023-05-02T10:59:32;44991.94;;;-143.84;28.67
6032;BME280;3044;43.232;27.972;2023-05-02T11:01:59;44999.56;;;-143.84;29.52
6032;BME280;3044;43.232;27.972;2023-05-02T11:05:02;44976.72;;;-143.84;28.03
6032;BME280;3044;43.232;27.972;2023-05-02T11:07:30;44963.38;;;-143.84;30.10
6032;BME280;3044;43.232;27.972;2023-05-02T11:10:25;44963.38;;;-143.84;28.86
6032;BME280;3044;43.232;27.972;2023-05-02T11:12:56;44984.31;;;-143.84;28.42
6032;BME280;3044;43.232;27.972;2023-05-02T11:15:53;44959.56;;;-143.84;28.83
6032;BME280;3044;43.232;27.972;2023-05-02T11:18:21;44986.22;;;-143.84;27.98
6032;BME280;3044;43.232;27.972;2023-05-02T11:20:51;45003.38;;;-143.84;28.87
6032;BME280;3044;43.232;27.972;2023-05-02T11:23:19;44991.94;;;-143.84;28.85
6032;BME280;3044;43.232;27.972;2023-05-02T11:25:49;44965.28;;;-143.84;28.39
6032;BME280;3044;43.232;27.972;2023-05-02T11:28:47;44984.31;;;-143.84;30.01
6032;BME280;3044;43.232;27.972;2023-05-02T11:34:42;44972.91;;;-143.84;28.07
6032;BME280;3044;43.232;27.972;2023-05-02T11:37:12;44995.75;;;-143.84;29.21
6032;BME280;3044;43.232;27.972;2023-05-02T11:39:40;44999.56;;;-143.84;28.61
6032;BME280;3044;43.232;27.972;2023-05-02T11:42:08;44984.31;;;-143.84;28.64
6032;BME280;3044;43.232;27.972;2023-05-02T11:44:56;45009.09;;;-143.84;28.32
6032;BME280;3044;43.232;27.972;2023-05-02T11:47:24;45001.47;;;-143.84;28.95
6032;BME280;3044;43.232;27.972;2023-05-02T11:49:53;45010.97;;;-143.84;29.47
6032;BME280;3044;43.232;27.972;2023-05-02T11:52:21;44990.03;;;-143.84;28.37
6032;BME280;3044;43.232;27.972;2023-05-02T11:54:49;45010.97;;;-143.84;31.66
6032;BME280;3044;43.232;27.972;2023-05-02T11:57:19;44997.66;;;-143.84;28.91
6032;BME280;3044;43.232;27.972;2023-05-02T11:59:50;44988.13;;;-143.84;28.85
6032;BME280;3044;43.232;27.972;2023-05-02T12:02:18;44978.63;;;-143.84;29.41
6032;BME280;3044;43.232;27.972;2023-05-02T12:04:45;44990.03;;;-143.84;29.40
6032;BME280;3044;43.232;27.972;2023-05-02T12:07:13;44988.13;;;-143.84;28.90
6032;BME280;3044;43.232;27.972;2023-05-02T12:09:51;45010.97;;;-143.84;29.21
6032;BME280;3044;43.232;27.972;2023-05-02T12:12:19;44995.75;;;-143.84;28.73
6032;BME280;3044;43.232;27.972;2023-05-02T12:14:47;44982.41;;;-143.84;29.24
6032;BME280;3044;43.232;27.972;2023-05-02T12:17:14;44993.84;;;-143.84;29.52
6032;BME280;3044;43.232;27.972;2023-05-02T12:19:41;44982.41;;;-143.84;29.61
6032;BME280;3044;43.232;27.972;2023-05-02T12:22:09;45003.38;;;-143.84;30.18
6032;BME280;3044;43.232;27.972;2023-05-02T12:24:38;44988.13;;;-143.84;29.56
6032;BME280;3044;43.232;27.972;2023-05-02T12:27:11;44990.03;;;-143.84;30.44
6032;BME280;3044;43.232;27.972;2023-05-02T12:29:40;44997.66;;;-143.84;29.10
6032;BME280;3044;43.232;27.972;2023-05-02T12:32:07;44982.41;;;-143.84;29.10
6032;BME280;3044;43.232;27.972;2023-05-02T12:34:35;44995.75;;;-143.84;29.72
6032;BME280;3044;43.232;27.972;2023-05-02T12:37:03;45005.28;;;-143.84;29.27
6032;BME280;3044;43.232;27.972;2023-05-02T12:39:34;44993.84;;;-143.84;29.13
6032;BME280;3044;43.232;27.972;2023-05-02T12:42:09;45026.22;;;-143.84;29.64
6032;BME280;3044;43.232;27.972;2023-05-02T12:44:37;45014.78;;;-143.84;28.53
6032;BME280;3044;43.232;27.972;2023-05-02T12:47:05;44999.56;;;-143.84;28.82
6032;BME280;3044;43.232;27.972;2023-05-02T12:49:33;45016.69;;;-143.84;29.19
6032;BME280;3044;43.232;27.972;2023-05-02T12:52:13;44999.56;;;-143.84;29.47
6032;BME280;3044;43.232;27.972;2023-05-02T12:54:40;44990.03;;;-143.84;28.96
6032;BME280;3044;43.232;27.972;2023-05-02T12:57:08;45005.28;;;-143.84;28.93
6032;BME280;3044;43.232;27.972;2023-05-02T12:59:36;45005.28;;;-143.84;29.25
6032;BME280;3044;43.232;27.972;2023-05-02T13:02:05;45007.19;;;-143.84;31.02
6032;BME280;3044;43.232;27.972;2023-05-02T13:04:34;45005.28;;;-143.84;29.21
6032;BME280;3044;43.232;27.972;2023-05-02T13:07:01;45003.38;;;-143.84;28.82